createdAt,value
2022-12-15T00:02:13.056Z,2.80
2022-12-15T00:04:58.163Z,2.30
2022-12-15T00:07:43.269Z,3.28
2022-12-15T00:10:28.362Z,3.30
2022-12-15T00:13:13.415Z,2.75
2022-12-15T00:15:58.241Z,2.45
2022-12-15T00:18:43.443Z,2.75
2022-12-15T00:21:28.576Z,2.33
2022-12-15T00:24:13.733Z,2.13
2022-12-15T00:26:58.829Z,2.17
2022-12-15T00:29:43.962Z,3.03
2022-12-15T00:32:29.110Z,2.47
2022-12-15T00:35:14.001Z,2.88
2022-12-15T00:37:59.249Z,2.60
2022-12-15T00:40:25.796Z,2.40
2022-12-15T00:42:52.453Z,2.67
2022-12-15T00:45:18.988Z,3.30
2022-12-15T00:47:45.462Z,3.25
2022-12-15T00:50:30.674Z,2.90
2022-12-15T00:53:15.633Z,2.90
2022-12-15T00:56:00.708Z,2.58
2022-12-15T00:58:45.870Z,2.70
2022-12-15T01:01:30.909Z,2.60
2022-12-15T01:04:15.956Z,2.43
2022-12-15T01:07:01.076Z,2.75
2022-12-15T01:09:46.595Z,2.85
2022-12-15T01:12:31.533Z,2.65
2022-12-15T01:15:16.589Z,3.55
2022-12-15T01:18:01.635Z,3.40
2022-12-15T01:20:32.622Z,2.90
2022-12-15T01:22:59.320Z,3.10
2022-12-15T01:25:26.284Z,3.28
2022-12-15T01:27:52.976Z,3.15
2022-12-15T01:30:25.277Z,3.43
2022-12-15T01:32:52.581Z,3.13
2022-12-15T01:35:20.162Z,2.72
2022-12-15T01:37:50.011Z,2.88
2022-12-15T01:40:38.753Z,2.40
2022-12-15T01:43:12.309Z,3.37
2022-12-15T01:45:49.490Z,3.05
2022-12-15T01:48:46.353Z,3.72
2022-12-15T01:51:22.546Z,2.97
2022-12-15T01:53:55.076Z,2.85
2022-12-15T01:56:24.890Z,2.93
2022-12-15T01:58:54.722Z,2.92
2022-12-15T02:01:21.353Z,2.83
2022-12-15T02:03:48.526Z,2.95
2022-12-15T02:06:16.321Z,3.28
2022-12-15T02:08:47.346Z,2.97
2022-12-15T02:11:21.204Z,3.63
2022-12-15T02:13:55.225Z,2.95
2022-12-15T02:16:41.575Z,3.28
2022-12-15T02:19:13.793Z,2.65
2022-12-15T02:22:12.724Z,2.70
2022-12-15T02:24:57.676Z,3.17
2022-12-15T02:27:48.902Z,3.25
2022-12-15T02:31:08.709Z,2.70
2022-12-15T02:33:44.604Z,2.58
2022-12-15T02:36:38.408Z,2.87
2022-12-15T02:39:05.972Z,1.90
2022-12-15T02:41:41.769Z,2.92
2022-12-15T02:44:20.567Z,2.90
2022-12-15T02:47:09.944Z,3.50
2022-12-15T02:49:39.399Z,2.83
2022-12-15T02:52:27.875Z,2.58
2022-12-15T02:55:04.418Z,3.33
2022-12-15T02:57:43.602Z,2.45
2022-12-15T03:00:12.737Z,2.70
2022-12-15T03:02:42.574Z,3.27
2022-12-15T03:05:09.554Z,3.63
2022-12-15T03:07:36.005Z,2.55
2022-12-15T03:10:04.609Z,2.55
2022-12-15T03:12:31.082Z,3.45
2022-12-15T03:14:58.035Z,2.93
2022-12-15T03:17:24.608Z,2.83
2022-12-15T03:19:51.089Z,3.58
2022-12-15T03:22:17.579Z,3.15
2022-12-15T03:24:44.104Z,2.92
2022-12-15T03:27:11.823Z,2.60
2022-12-15T03:29:38.326Z,3.03
2022-12-15T03:32:05.158Z,3.47
2022-12-15T03:34:31.679Z,3.30
2022-12-15T03:36:58.392Z,3.13
2022-12-15T03:39:24.920Z,3.80
2022-12-15T03:41:51.431Z,2.78
2022-12-15T03:44:17.936Z,2.88
2022-12-15T03:46:44.685Z,2.72
2022-12-15T03:49:11.264Z,2.75
2022-12-15T03:51:37.721Z,2.83
2022-12-15T03:54:04.313Z,3.10
2022-12-15T03:56:31.079Z,2.88
2022-12-15T03:58:57.562Z,2.58
2022-12-15T04:01:29.008Z,2.90
2022-12-15T04:04:00.917Z,2.60
2022-12-15T04:06:28.807Z,2.85
2022-12-15T04:08:55.440Z,2.70
2022-12-15T04:11:21.921Z,2.90
2022-12-15T04:13:48.402Z,3.05
2022-12-15T04:16:19.551Z,3.33
2022-12-15T04:18:46.905Z,2.95
2022-12-15T04:21:13.321Z,3.25
2022-12-15T04:23:39.773Z,3.03
2022-12-15T04:26:25.017Z,3.10
2022-12-15T04:29:10.088Z,2.80
2022-12-15T04:31:55.268Z,2.95
2022-12-15T04:34:42.994Z,3.17
2022-12-15T04:37:31.788Z,2.67
2022-12-15T04:40:18.536Z,3.55
2022-12-15T04:43:06.164Z,2.27
2022-12-15T04:45:51.929Z,2.83
2022-12-15T04:48:37.013Z,2.78
2022-12-15T04:51:23.998Z,2.80
2022-12-15T04:54:09.203Z,2.70
2022-12-15T04:56:54.005Z,2.43
2022-12-15T04:59:39.259Z,3.20
2022-12-15T05:02:24.609Z,2.05
2022-12-15T05:05:09.586Z,3.28
2022-12-15T05:07:55.047Z,3.03
2022-12-15T05:10:40.181Z,2.67
2022-12-15T05:13:26.414Z,2.38
2022-12-15T05:16:11.487Z,3.13
2022-12-15T05:18:56.611Z,2.95
2022-12-15T05:21:41.723Z,2.08
2022-12-15T05:24:26.883Z,2.50
2022-12-15T05:27:12.022Z,1.92
2022-12-15T05:29:57.138Z,2.60
2022-12-15T05:32:23.829Z,2.53
2022-12-15T05:34:50.322Z,2.60
2022-12-15T05:37:16.754Z,2.87
2022-12-15T05:39:43.274Z,2.88
2022-12-15T05:42:09.856Z,3.13
2022-12-15T05:44:36.700Z,2.60
2022-12-15T05:47:04.800Z,2.70
2022-12-15T05:49:31.391Z,2.53
2022-12-15T05:51:57.883Z,2.83
2022-12-15T05:54:24.428Z,3.13
2022-12-15T05:56:50.957Z,2.90
2022-12-15T05:59:19.404Z,3.22
2022-12-15T06:01:46.437Z,3.23
2022-12-15T06:04:13.348Z,3.33
2022-12-15T06:06:41.146Z,2.83
2022-12-15T06:09:08.120Z,2.75
2022-12-15T06:11:34.731Z,2.60
2022-12-15T06:14:01.359Z,2.50
2022-12-15T06:16:28.493Z,2.38
2022-12-15T06:19:00.399Z,3.15
2022-12-15T06:21:35.262Z,2.70
2022-12-15T06:24:03.405Z,3.17
2022-12-15T06:26:39.531Z,3.03
2022-12-15T06:29:08.754Z,2.45
2022-12-15T06:31:36.412Z,2.67
2022-12-15T06:34:05.383Z,2.92
2022-12-15T06:36:32.048Z,3.30
2022-12-15T06:39:00.708Z,3.50
2022-12-15T06:41:30.288Z,2.50
2022-12-15T06:43:57.586Z,3.38
2022-12-15T06:46:25.488Z,3.50
2022-12-15T06:48:52.107Z,3.70
2022-12-15T06:51:18.921Z,2.23
2022-12-15T06:53:48.916Z,2.97
2022-12-15T06:56:21.823Z,2.60
2022-12-15T06:58:52.713Z,3.05
2022-12-15T07:01:23.460Z,3.03
2022-12-15T07:03:50.958Z,3.57
2022-12-15T07:06:18.203Z,3.60
2022-12-15T07:08:51.622Z,2.75
2022-12-15T07:11:21.302Z,3.33
2022-12-15T07:13:54.575Z,2.55
2022-12-15T07:16:22.833Z,3.03
2022-12-15T07:18:50.065Z,2.85
2022-12-15T07:21:16.879Z,3.58
2022-12-15T07:23:54.668Z,3.40
2022-12-15T07:26:22.058Z,3.40
2022-12-15T07:28:48.516Z,3.50
2022-12-15T07:31:15.714Z,3.13
2022-12-15T07:33:42.897Z,3.25
2022-12-15T07:36:09.653Z,3.35
2022-12-15T07:38:36.470Z,2.95
2022-12-15T07:41:07.864Z,3.07
2022-12-15T07:43:35.336Z,2.80
2022-12-15T07:46:03.287Z,3.17
2022-12-15T07:48:30.101Z,4.70
2022-12-15T07:51:08.433Z,3.90
2022-12-15T07:53:36.976Z,4.13
2022-12-15T07:56:08.027Z,3.92
2022-12-15T07:58:36.215Z,4.40
2022-12-15T08:01:07.029Z,3.28
2022-12-15T08:03:35.051Z,4.40
2022-12-15T08:06:10.451Z,3.87
2022-12-15T08:08:37.769Z,4.03
2022-12-15T08:11:12.500Z,3.67
2022-12-15T08:16:27.538Z,3.47
2022-12-15T08:18:54.095Z,4.23
2022-12-15T08:21:20.817Z,3.72
2022-12-15T08:23:47.844Z,4.07
2022-12-15T08:26:16.686Z,4.38
2022-12-15T08:28:44.208Z,4.10
2022-12-15T08:31:17.102Z,3.80
2022-12-15T08:33:44.964Z,3.80
2022-12-15T08:36:13.617Z,4.97
2022-12-15T08:38:42.316Z,4.60
2022-12-15T08:41:13.209Z,5.30
2022-12-15T08:43:47.545Z,5.10
2022-12-15T08:46:15.997Z,5.30
2022-12-15T08:48:42.997Z,4.53
2022-12-15T08:51:10.261Z,5.28
2022-12-15T08:53:37.045Z,5.20
2022-12-15T08:56:09.137Z,4.60
2022-12-15T08:58:36.603Z,6.03
2022-12-15T09:01:06.354Z,5.60
2022-12-15T09:03:34.297Z,5.38
2022-12-15T09:06:13.197Z,5.82
2022-12-15T09:08:39.811Z,6.40
2022-12-15T09:11:06.367Z,6.82
2022-12-15T09:13:33.404Z,5.85
2022-12-15T09:16:14.361Z,6.13
2022-12-15T09:18:46.839Z,5.68
2022-12-15T09:21:14.446Z,5.73
2022-12-15T09:23:41.915Z,6.22
2022-12-15T09:26:14.409Z,6.28
2022-12-15T09:28:42.802Z,5.70
2022-12-15T09:31:15.658Z,5.85
2022-12-15T09:33:43.352Z,7.20
2022-12-15T09:36:13.275Z,6.85
2022-12-15T09:38:42.189Z,6.25
2022-12-15T09:41:09.081Z,6.80
2022-12-15T09:43:46.115Z,8.10
2022-12-15T09:46:49.903Z,7.60
2022-12-15T09:49:32.968Z,6.65
2022-12-15T09:52:10.675Z,7.32
2022-12-15T09:54:38.327Z,7.78
2022-12-15T09:57:19.307Z,8.93
2022-12-15T10:00:21.258Z,7.17
2022-12-15T10:03:24.964Z,8.18
2022-12-15T10:06:21.993Z,7.80
2022-12-15T10:08:55.978Z,6.78
2022-12-15T10:11:30.857Z,7.70
2022-12-15T10:14:24.643Z,7.90
2022-12-15T10:17:00.035Z,7.28
2022-12-15T10:19:39.261Z,8.35
2022-12-15T10:22:10.873Z,8.13
2022-12-15T10:25:08.563Z,8.18
2022-12-15T10:30:39.130Z,7.63
2022-12-15T10:33:21.707Z,7.68
2022-12-15T10:35:50.356Z,7.85
2022-12-15T10:38:31.146Z,8.27
2022-12-15T10:41:15.365Z,7.93
2022-12-15T10:43:45.342Z,8.07
2022-12-15T10:46:18.989Z,7.45
2022-12-15T10:48:54.476Z,7.68
2022-12-15T10:51:37.084Z,8.07
2022-12-15T10:54:05.427Z,7.53
2022-12-15T10:56:34.135Z,7.25
2022-12-15T10:59:31.834Z,8.00
2022-12-15T11:02:24.559Z,8.45
2022-12-15T11:04:56.496Z,7.72
2022-12-15T11:07:23.961Z,7.90
2022-12-15T11:09:57.692Z,8.02
2022-12-15T11:12:46.935Z,7.85
2022-12-15T11:15:23.083Z,7.90
2022-12-15T11:18:04.463Z,7.30
2022-12-15T11:20:35.829Z,7.33
2022-12-15T11:23:09.669Z,8.23
2022-12-15T11:25:47.049Z,8.65
2022-12-15T11:28:23.291Z,8.00
2022-12-15T11:31:00.485Z,8.32
2022-12-15T11:33:27.078Z,8.20
2022-12-15T11:36:03.230Z,8.00
2022-12-15T11:38:41.304Z,8.60
2022-12-15T11:41:17.163Z,8.02
2022-12-15T11:43:55.270Z,8.40
2022-12-15T11:46:24.239Z,7.90
2022-12-15T11:49:11.919Z,8.57
2022-12-15T11:52:10.237Z,8.60
2022-12-15T11:54:53.644Z,7.90
2022-12-15T11:57:50.576Z,8.27
2022-12-15T12:00:20.411Z,7.93
2022-12-15T12:03:05.024Z,8.10
2022-12-15T12:05:53.320Z,9.52
2022-12-15T12:08:25.754Z,9.35
2022-12-15T12:10:59.860Z,7.85
2022-12-15T12:13:40.809Z,7.97
2022-12-15T12:16:45.415Z,8.98
2022-12-15T12:19:18.177Z,7.72
2022-12-15T12:21:51.093Z,7.80
2022-12-15T12:24:30.374Z,7.90
2022-12-15T12:26:58.998Z,8.33
2022-12-15T12:29:31.376Z,8.02
2022-12-15T12:32:31.629Z,8.20
2022-12-15T12:35:30.908Z,8.05
2022-12-15T12:38:03.848Z,8.02
2022-12-15T12:40:36.886Z,9.00
2022-12-15T12:43:08.621Z,9.07
2022-12-15T12:45:50.267Z,9.05
2022-12-15T12:48:36.581Z,9.35
2022-12-15T12:51:16.648Z,8.82
2022-12-15T12:53:43.289Z,9.87
2022-12-15T12:56:43.320Z,8.88
2022-12-15T12:59:27.738Z,9.27
2022-12-15T13:02:35.424Z,9.27
2022-12-15T13:05:23.798Z,9.35
2022-12-15T13:08:13.489Z,9.60
2022-12-15T13:10:42.265Z,10.15
2022-12-15T13:13:08.697Z,10.10
2022-12-15T13:15:42.941Z,9.73
2022-12-15T13:18:12.579Z,10.27
2022-12-15T13:20:40.489Z,10.30
2022-12-15T13:23:22.202Z,11.15
2022-12-15T13:25:57.725Z,10.10
2022-12-15T13:28:34.933Z,10.30
2022-12-15T13:31:16.898Z,10.52
2022-12-15T13:33:49.403Z,9.77
2022-12-15T13:36:37.919Z,11.00
2022-12-15T13:39:16.789Z,10.88
2022-12-15T13:44:55.157Z,10.55
2022-12-15T13:47:28.111Z,10.00
2022-12-15T13:50:21.791Z,10.48
2022-12-15T13:53:18.315Z,10.60
2022-12-15T13:55:53.896Z,10.50
2022-12-15T13:58:23.167Z,10.07
2022-12-15T14:00:58.004Z,10.67
2022-12-15T14:03:25.955Z,10.25
2022-12-15T14:05:58.696Z,11.07
2022-12-15T14:08:28.573Z,10.45
2022-12-15T14:11:16.541Z,11.38
2022-12-15T14:13:52.351Z,11.23
2022-12-15T14:16:22.953Z,11.55
2022-12-15T14:19:14.957Z,12.60
2022-12-15T14:21:52.994Z,11.13
2022-12-15T14:24:39.038Z,11.40
2022-12-15T14:27:06.773Z,11.33
2022-12-15T14:29:33.395Z,10.88
2022-12-15T14:32:00.610Z,11.55
2022-12-15T14:34:32.530Z,11.75
2022-12-15T14:37:02.478Z,11.82
2022-12-15T14:39:36.400Z,11.60
2022-12-15T14:42:05.068Z,12.15
2022-12-15T14:44:39.155Z,11.98
2022-12-15T14:47:14.790Z,11.63
2022-12-15T14:49:45.338Z,13.70
2022-12-15T14:52:36.856Z,11.70
2022-12-15T14:55:22.013Z,11.40
2022-12-15T14:57:51.922Z,12.13
2022-12-15T15:00:30.391Z,12.05
2022-12-15T15:03:04.401Z,8.20
2022-12-15T15:03:18.209Z,11.60
2022-12-15T15:05:48.043Z,10.33
2022-12-15T15:08:36.689Z,12.30
2022-12-15T15:11:30.347Z,13.98
2022-12-15T15:14:00.744Z,11.48
2022-12-15T15:16:27.543Z,12.35
2022-12-15T15:18:56.300Z,11.90
2022-12-15T15:21:28.426Z,11.18
2022-12-15T15:24:20.949Z,12.23
2022-12-15T15:26:47.451Z,10.90
2022-12-15T15:29:35.947Z,11.77
2022-12-15T15:32:15.936Z,11.10
2022-12-15T15:34:43.185Z,10.77
2022-12-15T15:37:18.171Z,10.93
2022-12-15T15:39:46.009Z,10.80
2022-12-15T15:42:15.305Z,11.43
2022-12-15T15:44:41.754Z,10.70
2022-12-15T15:47:20.129Z,12.02
2022-12-15T15:49:47.118Z,11.98
2022-12-15T15:52:13.838Z,11.40
2022-12-15T15:54:40.619Z,12.15
2022-12-15T15:57:13.133Z,13.03
2022-12-15T15:59:42.282Z,12.82
2022-12-15T16:02:13.557Z,19.15
2022-12-15T16:04:42.201Z,27.52
2022-12-15T16:07:27.185Z,23.58
2022-12-15T16:09:54.762Z,15.00
2022-12-15T16:12:27.902Z,14.75
2022-12-15T16:14:55.594Z,11.93
2022-12-15T16:17:22.807Z,14.38
2022-12-15T16:19:49.474Z,21.13
2022-12-15T16:22:19.817Z,18.77
2022-12-15T16:24:47.167Z,17.77
2022-12-15T16:27:15.107Z,13.70
2022-12-15T16:29:41.584Z,12.23
2022-12-15T16:32:12.515Z,12.32
2022-12-15T16:34:39.314Z,11.50
2022-12-15T16:37:06.471Z,11.88
2022-12-15T16:39:35.410Z,13.57
2022-12-15T16:42:02.696Z,12.45
2022-12-15T16:44:29.889Z,15.63
2022-12-15T16:46:57.546Z,15.00
2022-12-15T16:49:24.386Z,14.63
2022-12-15T16:51:53.404Z,14.85
2022-12-15T16:54:31.685Z,13.75
2022-12-15T16:56:59.999Z,12.98
2022-12-15T16:59:35.701Z,12.07
2022-12-15T17:02:31.654Z,12.88
2022-12-15T17:04:58.266Z,49.90
2022-12-15T17:07:27.627Z,26.50
2022-12-15T17:09:54.194Z,28.67
2022-12-15T17:12:20.769Z,22.40
2022-12-15T17:14:47.280Z,19.67
2022-12-15T17:17:19.234Z,28.55
2022-12-15T17:20:11.743Z,23.23
2022-12-15T17:22:33.376Z,17.70
2022-12-15T17:25:00.236Z,16.33
2022-12-15T17:27:28.839Z,14.88
2022-12-15T17:29:56.816Z,16.75
2022-12-15T17:32:23.431Z,13.15
2022-12-15T17:34:50.242Z,11.98
2022-12-15T17:37:16.774Z,11.83
2022-12-15T17:39:50.644Z,11.73
2022-12-15T17:42:19.873Z,11.85
2022-12-15T17:44:47.855Z,14.23
2022-12-15T17:47:15.918Z,15.43
2022-12-15T17:49:42.894Z,15.43
2022-12-15T17:52:28.915Z,15.57
2022-12-15T17:54:55.928Z,15.23
2022-12-15T17:57:22.984Z,12.95
2022-12-15T17:59:50.024Z,13.07
2022-12-15T18:02:16.687Z,13.07
2022-12-15T18:04:44.239Z,15.07
2022-12-15T18:07:22.921Z,18.73
2022-12-15T18:09:52.020Z,16.65
2022-12-15T18:12:25.173Z,12.93
2022-12-15T18:14:52.247Z,12.10
2022-12-15T18:17:19.298Z,15.30
2022-12-15T18:19:45.811Z,17.08
2022-12-15T18:22:15.338Z,18.65
2022-12-15T18:24:42.207Z,16.08
2022-12-15T18:27:24.096Z,16.80
2022-12-15T18:29:50.794Z,16.65
2022-12-15T18:32:18.041Z,17.00
2022-12-15T18:34:44.784Z,17.55
2022-12-15T18:37:19.149Z,18.00
2022-12-15T18:39:46.588Z,18.23
2022-12-15T18:42:18.949Z,16.42
2022-12-15T18:44:49.045Z,17.27
2022-12-15T18:47:18.619Z,18.77
2022-12-15T18:49:45.353Z,15.98
2022-12-15T18:52:20.423Z,14.10
2022-12-15T18:54:51.550Z,13.65
2022-12-15T18:57:32.637Z,15.63
2022-12-15T19:00:04.879Z,15.90
2022-12-15T19:02:31.560Z,18.00
2022-12-15T19:04:58.250Z,20.40
2022-12-15T19:07:24.812Z,18.23
2022-12-15T19:09:51.407Z,19.25
2022-12-15T19:12:18.460Z,19.05
2022-12-15T19:14:48.045Z,19.58
2022-12-15T19:17:38.984Z,16.60
2022-12-15T19:20:36.332Z,15.38
2022-12-15T19:23:03.382Z,14.95
2022-12-15T19:25:30.664Z,15.07
2022-12-15T19:27:59.845Z,16.58
2022-12-15T19:30:38.555Z,15.13
2022-12-15T19:33:08.137Z,14.98
2022-12-15T19:35:35.816Z,15.02
2022-12-15T19:38:03.432Z,14.15
2022-12-15T19:40:32.695Z,15.73
2022-12-15T19:43:00.565Z,15.07
2022-12-15T19:45:30.182Z,15.13
2022-12-15T19:47:57.195Z,16.15
2022-12-15T19:50:26.300Z,15.93
2022-12-15T19:52:57.746Z,20.60
2022-12-15T19:55:28.695Z,17.50
2022-12-15T19:57:55.555Z,19.73
2022-12-15T20:00:22.827Z,27.25
2022-12-15T20:02:51.594Z,17.98
2022-12-15T20:05:19.232Z,17.02
2022-12-15T20:07:47.451Z,18.90
2022-12-15T20:10:25.946Z,17.38
2022-12-15T20:12:54.316Z,17.73
2022-12-15T20:15:23.512Z,18.48
2022-12-15T20:17:57.485Z,16.52
2022-12-15T20:20:27.134Z,16.03
2022-12-15T20:22:57.393Z,18.67
2022-12-15T20:25:30.911Z,17.05
2022-12-15T20:28:00.373Z,16.20
2022-12-15T20:30:32.615Z,16.63
2022-12-15T20:33:00.881Z,16.10
2022-12-15T20:35:28.545Z,16.50
2022-12-15T20:37:55.120Z,15.32
2022-12-15T20:40:28.173Z,16.10
2022-12-15T20:42:55.649Z,15.13
2022-12-15T20:45:25.719Z,15.23
2022-12-15T20:47:54.813Z,16.85
2022-12-15T20:50:41.186Z,17.05
2022-12-15T20:53:27.349Z,14.77
2022-12-15T20:55:55.365Z,14.07
2022-12-15T20:58:22.421Z,14.80
2022-12-15T21:00:51.666Z,15.15
2022-12-15T21:03:23.169Z,14.40
2022-12-15T21:05:51.529Z,15.80
2022-12-15T21:08:20.925Z,14.23
2022-12-15T21:10:47.550Z,14.87
2022-12-15T21:13:21.399Z,14.68
2022-12-15T21:15:47.900Z,17.05
2022-12-15T21:18:51.909Z,19.70
2022-12-15T21:21:01.227Z,16.55
2022-12-15T21:23:32.075Z,15.57
2022-12-15T21:26:01.393Z,15.30
2022-12-15T21:28:27.955Z,15.90
2022-12-15T21:30:54.528Z,16.05
2022-12-15T21:33:21.554Z,15.32
2022-12-15T21:35:48.495Z,15.57
2022-12-15T21:38:49.283Z,15.48
2022-12-15T21:41:18.302Z,15.10
2022-12-15T21:43:45.478Z,13.75
2022-12-15T21:46:28.713Z,14.70
2022-12-15T21:49:14.514Z,14.47
2022-12-15T21:51:43.865Z,15.48
2022-12-15T21:54:27.430Z,15.65
2022-12-15T21:56:57.331Z,16.33
2022-12-15T21:59:25.932Z,16.08
2022-12-15T22:01:54.377Z,15.23
2022-12-15T22:04:29.475Z,14.48
2022-12-15T22:06:55.955Z,13.70
2022-12-15T22:09:22.520Z,14.77
2022-12-15T22:11:53.597Z,15.15
2022-12-15T22:14:33.120Z,14.80
2022-12-15T22:17:02.386Z,17.00
2022-12-15T22:19:28.962Z,16.48
2022-12-15T22:21:55.429Z,15.73
2022-12-15T22:24:21.995Z,15.35
2022-12-15T22:26:48.739Z,14.70
2022-12-15T22:29:19.228Z,13.63
2022-12-15T22:31:46.932Z,13.70
2022-12-15T22:34:16.113Z,15.13
2022-12-15T22:36:42.664Z,15.27
2022-12-15T22:39:11.053Z,14.40
2022-12-15T22:41:43.955Z,14.95
2022-12-15T22:44:23.441Z,14.75
2022-12-15T22:46:51.537Z,13.68
2022-12-15T22:49:20.477Z,15.20
2022-12-15T22:51:47.546Z,15.60
2022-12-15T22:54:19.591Z,15.52
2022-12-15T22:56:49.049Z,15.20
2022-12-15T22:59:24.668Z,14.90
2022-12-15T23:01:51.294Z,14.23
2022-12-15T23:04:18.430Z,13.57
2022-12-15T23:06:45.419Z,13.90
2022-12-15T23:09:12.235Z,15.85
2022-12-15T23:11:38.804Z,15.77
2022-12-15T23:14:11.371Z,15.25
2022-12-15T23:16:38.879Z,14.87
2022-12-15T23:19:08.357Z,14.32
2022-12-15T23:21:35.601Z,14.88
2022-12-15T23:24:02.159Z,13.00
2022-12-15T23:26:28.654Z,14.70
2022-12-15T23:28:55.353Z,15.33
2022-12-15T23:31:22.756Z,15.07
2022-12-15T23:33:49.953Z,14.25
2022-12-15T23:36:18.934Z,14.70
2022-12-15T23:38:45.528Z,13.50
2022-12-15T23:41:16.780Z,14.00
2022-12-15T23:43:43.907Z,12.85
2022-12-15T23:46:10.608Z,13.90
2022-12-15T23:48:40.449Z,14.20
2022-12-15T23:51:16.625Z,13.68
2022-12-15T23:53:44.578Z,12.33
2022-12-15T23:56:15.081Z,13.10
2022-12-15T23:58:43.349Z,13.80
